createdAt,value
2018-07-27T00:02:11.868Z,23.90
2018-07-27T00:04:39.910Z,23.80
2018-07-27T00:07:07.969Z,23.80
2018-07-27T00:09:36.001Z,23.80
2018-07-27T00:12:04.079Z,23.80
2018-07-27T00:14:32.124Z,23.80
2018-07-27T00:17:00.168Z,23.80
2018-07-27T00:19:28.210Z,23.70
2018-07-27T00:21:56.266Z,23.80
2018-07-27T00:24:24.312Z,23.70
2018-07-27T00:26:52.381Z,23.70
2018-07-27T00:29:20.425Z,23.70
2018-07-27T00:31:48.474Z,23.70
2018-07-27T00:34:16.512Z,23.70
2018-07-27T00:36:44.557Z,23.60
2018-07-27T00:39:12.606Z,23.60
2018-07-27T00:41:40.661Z,23.60
2018-07-27T00:44:08.696Z,23.60
2018-07-27T00:46:36.740Z,23.60
2018-07-27T00:49:04.900Z,23.60
2018-07-27T00:51:32.940Z,23.50
2018-07-27T00:54:00.981Z,23.50
2018-07-27T00:56:29.031Z,23.50
2018-07-27T00:58:57.076Z,23.50
2018-07-27T01:01:25.128Z,23.40
2018-07-27T01:03:53.215Z,23.40
2018-07-27T01:06:21.292Z,23.40
2018-07-27T01:08:49.388Z,23.40
2018-07-27T01:11:17.464Z,23.40
2018-07-27T01:13:45.588Z,23.40
2018-07-27T01:16:13.659Z,23.40
2018-07-27T01:18:41.744Z,23.40
2018-07-27T01:21:09.821Z,23.30
2018-07-27T01:26:05.792Z,23.30
2018-07-27T01:28:33.868Z,23.30
2018-07-27T01:31:01.948Z,23.30
2018-07-27T01:33:30.029Z,23.30
2018-07-27T01:35:58.113Z,23.20
2018-07-27T01:38:26.184Z,23.30
2018-07-27T01:40:54.268Z,23.20
2018-07-27T01:43:22.347Z,23.30
2018-07-27T01:45:50.420Z,23.20
2018-07-27T01:48:18.504Z,23.20
2018-07-27T01:50:46.580Z,23.20
2018-07-27T01:53:14.691Z,23.20
2018-07-27T01:55:42.778Z,23.20
2018-07-27T01:58:10.870Z,23.10
2018-07-27T02:00:38.940Z,23.10
2018-07-27T02:03:07.020Z,23.10
2018-07-27T02:05:35.089Z,23.10
2018-07-27T02:08:03.172Z,23.00
2018-07-27T02:10:31.235Z,23.00
2018-07-27T02:12:59.325Z,23.00
2018-07-27T02:15:27.392Z,22.90
2018-07-27T02:17:55.485Z,22.90
2018-07-27T02:20:23.569Z,22.80
2018-07-27T02:22:51.854Z,22.80
2018-07-27T02:25:19.900Z,22.60
2018-07-27T02:27:47.939Z,22.40
2018-07-27T02:30:16.012Z,22.20
2018-07-27T02:32:44.076Z,22.00
2018-07-27T02:35:12.122Z,21.90
2018-07-27T02:37:40.172Z,21.80
2018-07-27T02:40:08.242Z,21.80
2018-07-27T02:42:36.253Z,21.80
2018-07-27T02:45:04.932Z,21.70
2018-07-27T02:47:32.961Z,21.70
2018-07-27T02:50:01.017Z,21.70
2018-07-27T02:52:29.059Z,21.70
2018-07-27T02:54:57.101Z,21.60
2018-07-27T02:57:25.153Z,21.50
2018-07-27T02:59:53.195Z,21.40
2018-07-27T03:02:21.249Z,21.30
2018-07-27T03:04:49.296Z,21.30
2018-07-27T03:07:17.352Z,21.30
2018-07-27T03:12:13.245Z,21.20
2018-07-27T03:14:41.292Z,21.10
2018-07-27T03:17:09.329Z,21.10
2018-07-27T03:19:37.378Z,21.00
2018-07-27T03:22:05.446Z,21.00
2018-07-27T03:24:33.484Z,20.90
2018-07-27T03:27:01.533Z,20.90
2018-07-27T03:29:29.575Z,20.90
2018-07-27T03:31:57.640Z,20.80
2018-07-27T03:34:25.677Z,20.80
2018-07-27T03:36:53.725Z,20.70
2018-07-27T03:39:21.772Z,20.70
2018-07-27T03:41:49.808Z,20.70
2018-07-27T03:44:17.848Z,20.60
2018-07-27T03:46:45.881Z,20.60
2018-07-27T03:49:13.928Z,20.60
2018-07-27T03:51:41.970Z,20.50
2018-07-27T03:54:10.017Z,20.50
2018-07-27T03:56:38.057Z,20.50
2018-07-27T03:59:06.105Z,20.40
2018-07-27T04:01:34.147Z,20.40
2018-07-27T04:04:02.198Z,20.40
2018-07-27T04:06:30.234Z,20.30
2018-07-27T04:08:58.276Z,20.30
2018-07-27T04:11:26.336Z,20.30
2018-07-27T04:13:54.389Z,20.30
2018-07-27T04:16:22.420Z,20.20
2018-07-27T04:18:50.467Z,20.20
2018-07-27T04:21:18.557Z,20.20
2018-07-27T04:23:46.604Z,20.20
2018-07-27T04:26:14.651Z,20.30
2018-07-27T04:31:10.530Z,20.30
2018-07-27T04:33:38.589Z,20.40
2018-07-27T04:36:06.634Z,20.40
2018-07-27T04:38:34.677Z,20.30
2018-07-27T04:41:02.711Z,20.30
2018-07-27T04:43:30.760Z,20.30
2018-07-27T04:45:58.804Z,20.40
2018-07-27T04:48:26.852Z,20.40
2018-07-27T04:50:55.427Z,20.40
2018-07-27T04:53:23.488Z,20.50
2018-07-27T04:55:51.537Z,20.50
2018-07-27T04:58:19.580Z,20.60
2018-07-27T05:00:47.627Z,20.60
2018-07-27T05:03:15.677Z,20.70
2018-07-27T05:05:43.730Z,20.80
2018-07-27T05:08:11.772Z,20.90
2018-07-27T05:10:49.624Z,21.00
2018-07-27T05:13:18.641Z,21.10
2018-07-27T05:15:47.840Z,21.20
2018-07-27T05:18:16.721Z,21.30
2018-07-27T05:20:44.828Z,21.50
2018-07-27T05:23:13.030Z,21.60
2018-07-27T05:25:41.100Z,21.70
2018-07-27T05:28:09.600Z,21.80
2018-07-27T05:30:37.692Z,21.90
2018-07-27T05:33:06.080Z,22.00
2018-07-27T05:35:34.180Z,22.20
2018-07-27T05:38:02.240Z,22.30
2018-07-27T05:40:30.313Z,22.50
2018-07-27T05:42:58.384Z,22.70
2018-07-27T05:45:26.439Z,22.80
2018-07-27T05:47:54.500Z,22.90
2018-07-27T05:50:22.576Z,23.00
2018-07-27T05:52:50.752Z,23.20
2018-07-27T05:55:18.776Z,23.30
2018-07-27T05:57:46.837Z,23.40
2018-07-27T06:00:14.908Z,23.50
2018-07-27T06:02:43.004Z,23.70
2018-07-27T06:05:11.049Z,23.80
2018-07-27T06:07:39.100Z,23.90
2018-07-27T06:10:07.660Z,24.10
2018-07-27T06:12:35.941Z,24.30
2018-07-27T06:15:04.766Z,24.40
2018-07-27T06:17:32.833Z,24.60
2018-07-27T06:20:00.908Z,24.90
2018-07-27T06:22:28.948Z,25.30
2018-07-27T06:24:57.006Z,26.00
2018-07-27T06:27:25.056Z,26.90
2018-07-27T06:29:53.134Z,28.10
2018-07-27T06:32:21.164Z,29.30
2018-07-27T06:34:49.222Z,30.70
2018-07-27T06:37:17.256Z,31.90
2018-07-27T06:39:46.212Z,33.00
2018-07-27T06:42:14.701Z,34.00
2018-07-27T06:44:42.765Z,35.00
2018-07-27T06:47:10.831Z,36.00
2018-07-27T06:49:38.890Z,36.70
2018-07-27T06:52:06.929Z,37.50
2018-07-27T06:54:34.980Z,38.00
2018-07-27T06:57:03.027Z,38.30
2018-07-27T06:59:31.080Z,38.60
2018-07-27T07:01:59.127Z,39.00
2018-07-27T07:04:27.181Z,39.50
2018-07-27T07:06:55.225Z,39.60
2018-07-27T07:09:23.269Z,39.60
2018-07-27T07:11:51.318Z,39.60
2018-07-27T07:14:19.369Z,39.30
2018-07-27T07:16:47.412Z,39.30
2018-07-27T07:19:15.480Z,39.10
2018-07-27T07:21:43.608Z,38.70
2018-07-27T07:24:11.657Z,38.30
2018-07-27T07:26:39.705Z,37.90
2018-07-27T07:29:07.769Z,37.60
2018-07-27T07:31:35.808Z,37.10
2018-07-27T07:34:03.864Z,36.60
2018-07-27T07:36:31.908Z,36.30
2018-07-27T07:38:59.961Z,36.00
2018-07-27T07:41:27.996Z,35.90
2018-07-27T07:43:56.042Z,35.80
2018-07-27T07:46:24.094Z,35.70
2018-07-27T07:48:52.145Z,35.70
2018-07-27T07:51:20.185Z,35.60
2018-07-27T07:53:48.223Z,35.40
2018-07-27T07:56:16.290Z,35.30
2018-07-27T07:58:44.393Z,35.30
2018-07-27T08:01:12.395Z,35.30
2018-07-27T08:03:40.432Z,35.30
2018-07-27T08:06:08.473Z,35.30
2018-07-27T08:08:36.515Z,35.30
2018-07-27T08:11:04.561Z,35.50
2018-07-27T08:13:32.592Z,35.60
2018-07-27T08:16:00.664Z,35.60
2018-07-27T08:18:28.692Z,35.70
2018-07-27T08:20:56.748Z,35.90
2018-07-27T08:23:24.832Z,36.10
2018-07-27T08:27:00.439Z,36.20
2018-07-27T08:29:32.724Z,36.30
2018-07-27T08:32:01.248Z,36.50
2018-07-27T08:34:29.343Z,36.60
2018-07-27T08:36:57.425Z,36.80
2018-07-27T08:39:26.684Z,36.90
2018-07-27T08:41:54.753Z,37.10
2018-07-27T08:44:26.847Z,37.30
2018-07-27T08:46:54.924Z,37.40
2018-07-27T08:49:23.011Z,37.50
2018-07-27T08:51:51.053Z,37.60
2018-07-27T08:54:19.124Z,37.70
2018-07-27T08:56:47.180Z,37.80
2018-07-27T08:59:15.237Z,37.90
2018-07-27T09:01:43.339Z,38.00
2018-07-27T09:04:11.389Z,38.20
2018-07-27T09:06:39.440Z,38.30
2018-07-27T09:09:08.789Z,38.40
2018-07-27T09:11:36.929Z,38.50
2018-07-27T09:14:04.984Z,38.60
2018-07-27T09:16:33.076Z,38.70
2018-07-27T09:21:35.856Z,39.00
2018-07-27T09:24:03.970Z,39.10
2018-07-27T09:26:32.020Z,39.30
2018-07-27T09:29:00.069Z,39.30
2018-07-27T09:31:28.118Z,39.50
2018-07-27T09:33:56.200Z,39.70
2018-07-27T09:36:24.260Z,39.70
2018-07-27T09:38:52.296Z,39.80
2018-07-27T09:41:20.340Z,40.00
2018-07-27T09:43:48.437Z,39.90
2018-07-27T09:46:16.484Z,39.50
2018-07-27T09:48:49.969Z,39.40
2018-07-27T09:51:18.188Z,39.40
2018-07-27T09:53:46.274Z,39.40
2018-07-27T09:56:14.288Z,39.20
2018-07-27T09:58:42.359Z,39.20
2018-07-27T10:01:15.887Z,38.90
2018-07-27T10:03:43.937Z,38.90
2018-07-27T10:06:12.045Z,38.70
2018-07-27T10:08:40.123Z,38.30
2018-07-27T10:11:08.184Z,37.80
2018-07-27T10:13:36.275Z,37.50
2018-07-27T10:16:04.656Z,37.70
2018-07-27T10:18:32.823Z,37.90
2018-07-27T10:21:00.801Z,38.20
2018-07-27T10:23:28.839Z,38.30
2018-07-27T10:25:56.924Z,38.10
2018-07-27T10:28:24.969Z,38.40
2018-07-27T10:30:53.016Z,38.10
2018-07-27T10:33:21.060Z,38.00
2018-07-27T10:35:49.142Z,38.10
2018-07-27T10:38:17.380Z,38.30
2018-07-27T10:40:45.569Z,38.40
2018-07-27T10:43:13.616Z,38.40
2018-07-27T10:45:41.688Z,38.40
2018-07-27T10:48:09.731Z,38.60
2018-07-27T10:50:37.832Z,38.70
2018-07-27T10:53:05.920Z,38.40
2018-07-27T10:55:33.977Z,38.70
2018-07-27T10:58:02.029Z,39.30
2018-07-27T11:00:30.072Z,39.80
2018-07-27T11:02:58.205Z,40.10
2018-07-27T11:05:26.260Z,40.00
2018-07-27T11:07:54.348Z,40.20
2018-07-27T11:10:22.443Z,40.50
2018-07-27T11:12:50.508Z,40.90
2018-07-27T11:15:18.544Z,41.20
2018-07-27T11:17:46.603Z,41.40
2018-07-27T11:20:14.637Z,41.70
2018-07-27T11:25:23.836Z,41.70
2018-07-27T11:27:51.908Z,41.70
2018-07-27T11:30:19.972Z,41.60
2018-07-27T11:32:48.083Z,41.20
2018-07-27T11:35:16.147Z,40.90
2018-07-27T11:37:44.223Z,41.00
2018-07-27T11:40:12.296Z,41.00
2018-07-27T11:42:40.377Z,41.30
2018-07-27T11:45:08.454Z,41.60
2018-07-27T11:47:36.550Z,41.90
2018-07-27T11:50:04.752Z,42.30
2018-07-27T11:52:32.820Z,42.30
2018-07-27T11:55:00.968Z,42.00
2018-07-27T11:57:29.038Z,41.70
2018-07-27T11:59:57.084Z,41.90
2018-07-27T12:02:25.156Z,42.10
2018-07-27T12:04:53.215Z,42.30
2018-07-27T12:07:21.288Z,42.20
2018-07-27T12:09:49.360Z,42.00
2018-07-27T12:12:17.429Z,41.70
2018-07-27T12:14:45.658Z,41.30
2018-07-27T12:17:13.564Z,40.90
2018-07-27T12:19:41.655Z,40.60
2018-07-27T12:22:09.732Z,40.20
2018-07-27T12:24:37.805Z,39.50
2018-07-27T12:27:05.907Z,39.10
2018-07-27T12:29:33.952Z,38.80
2018-07-27T12:32:02.018Z,38.50
2018-07-27T12:34:30.072Z,38.70
2018-07-27T12:36:58.137Z,39.00
2018-07-27T12:39:26.196Z,39.30
2018-07-27T12:41:54.260Z,39.60
2018-07-27T12:44:22.331Z,39.30
2018-07-27T12:46:50.408Z,39.60
2018-07-27T12:49:18.476Z,39.70
2018-07-27T12:51:46.544Z,39.90
2018-07-27T12:54:14.615Z,40.20
2018-07-27T12:56:42.692Z,40.70
2018-07-27T12:59:10.751Z,41.30
2018-07-27T13:01:38.819Z,41.70
2018-07-27T13:04:06.872Z,42.20
2018-07-27T13:06:35.172Z,42.50
2018-07-27T13:09:04.180Z,42.40
2018-07-27T13:11:32.253Z,41.70
2018-07-27T13:14:00.316Z,40.90
2018-07-27T13:16:28.389Z,40.30
2018-07-27T13:18:56.452Z,39.80
2018-07-27T13:21:24.519Z,39.50
2018-07-27T13:23:58.100Z,38.90
2018-07-27T13:26:26.152Z,38.60
2018-07-27T13:28:54.193Z,38.90
2018-07-27T13:34:35.014Z,39.20
2018-07-27T13:37:03.199Z,39.20
2018-07-27T13:39:31.609Z,39.10
2018-07-27T13:42:00.779Z,38.80
2018-07-27T13:44:29.372Z,38.70
2018-07-27T13:46:57.428Z,38.50
2018-07-27T13:49:25.990Z,38.20
2018-07-27T13:51:54.244Z,38.10
2018-07-27T13:54:22.357Z,38.20
2018-07-27T13:56:50.360Z,38.50
2018-07-27T13:59:19.120Z,38.90
2018-07-27T14:01:48.318Z,39.20
2018-07-27T14:04:16.465Z,39.50
2018-07-27T14:06:46.225Z,39.60
2018-07-27T14:09:14.276Z,39.60
2018-07-27T14:11:42.524Z,39.90
2018-07-27T14:14:10.801Z,39.90
2018-07-27T14:16:39.182Z,39.90
2018-07-27T14:19:07.233Z,40.00
2018-07-27T14:21:35.432Z,40.30
2018-07-27T14:24:03.460Z,40.60
2018-07-27T14:26:31.553Z,40.80
2018-07-27T14:28:59.585Z,41.00
2018-07-27T14:31:27.640Z,40.90
2018-07-27T14:33:55.696Z,40.90
2018-07-27T14:36:23.972Z,40.80
2018-07-27T14:38:52.041Z,40.50
2018-07-27T14:41:21.048Z,40.50
2018-07-27T14:43:49.270Z,40.40
2018-07-27T14:46:17.285Z,40.30
2018-07-27T14:48:45.344Z,40.30
2018-07-27T14:51:13.401Z,40.20
2018-07-27T14:53:41.503Z,40.20
2018-07-27T14:56:09.544Z,40.10
2018-07-27T14:58:37.714Z,40.10
2018-07-27T15:01:05.719Z,40.10
2018-07-27T15:03:33.803Z,40.10
2018-07-27T15:06:01.876Z,40.10
2018-07-27T15:08:29.948Z,39.90
2018-07-27T15:10:57.993Z,39.70
2018-07-27T15:13:26.068Z,39.60
2018-07-27T15:15:54.109Z,39.60
2018-07-27T15:18:22.309Z,39.50
2018-07-27T15:20:50.373Z,39.50
2018-07-27T15:23:18.460Z,39.30
2018-07-27T15:25:46.512Z,39.20
2018-07-27T15:28:14.612Z,39.10
2018-07-27T15:30:42.655Z,39.00
2018-07-27T15:33:10.727Z,38.90
2018-07-27T15:35:38.832Z,38.80
2018-07-27T15:38:06.916Z,38.50
2018-07-27T15:40:34.956Z,38.20
2018-07-27T15:43:03.013Z,38.00
2018-07-27T15:45:31.065Z,37.70
2018-07-27T15:47:59.133Z,37.50
2018-07-27T15:50:27.216Z,37.50
2018-07-27T15:52:55.274Z,37.40
2018-07-27T15:55:23.329Z,37.40
2018-07-27T15:57:51.460Z,37.40
2018-07-27T16:00:19.508Z,37.40
2018-07-27T16:02:47.797Z,37.40
2018-07-27T16:07:46.279Z,37.40
2018-07-27T16:10:14.601Z,37.40
2018-07-27T16:12:42.687Z,37.40
2018-07-27T16:15:10.748Z,37.30
2018-07-27T16:17:38.793Z,37.30
2018-07-27T16:20:06.839Z,37.30
2018-07-27T16:22:34.913Z,37.30
2018-07-27T16:25:02.999Z,37.30
2018-07-27T16:27:31.080Z,37.20
2018-07-27T16:29:59.152Z,36.90
2018-07-27T16:32:27.236Z,36.70
2018-07-27T16:34:55.320Z,36.60
2018-07-27T16:37:23.403Z,36.30
2018-07-27T16:39:51.707Z,36.20
2018-07-27T16:42:19.832Z,36.20
2018-07-27T16:44:47.935Z,36.20
2018-07-27T16:47:16.029Z,36.20
2018-07-27T16:49:44.133Z,36.10
2018-07-27T16:52:12.220Z,36.10
2018-07-27T16:54:40.356Z,36.00
2018-07-27T16:57:08.445Z,35.80
2018-07-27T16:59:36.575Z,35.70
2018-07-27T17:02:04.649Z,35.70
2018-07-27T17:04:32.724Z,35.60
2018-07-27T17:07:00.812Z,35.50
2018-07-27T17:09:28.896Z,35.50
2018-07-27T17:11:57.055Z,35.50
2018-07-27T17:14:25.081Z,35.50
2018-07-27T17:16:53.156Z,35.50
2018-07-27T17:19:21.240Z,35.60
2018-07-27T17:21:49.320Z,35.60
2018-07-27T17:24:17.381Z,35.50
2018-07-27T17:26:45.456Z,35.50
2018-07-27T17:29:13.528Z,35.50
2018-07-27T17:31:41.557Z,35.40
2018-07-27T17:34:09.603Z,35.40
2018-07-27T17:36:37.661Z,35.20
2018-07-27T17:39:08.439Z,35.10
2018-07-27T17:41:36.520Z,35.10
2018-07-27T17:44:04.590Z,35.10
2018-07-27T17:46:32.636Z,35.10
2018-07-27T17:49:00.688Z,34.90
2018-07-27T17:51:28.737Z,34.90
2018-07-27T17:53:56.792Z,34.70
2018-07-27T17:56:24.862Z,34.60
2018-07-27T17:58:53.139Z,34.50
2018-07-27T18:01:21.444Z,34.40
2018-07-27T18:03:49.485Z,34.30
2018-07-27T18:06:17.536Z,34.10
2018-07-27T18:08:45.578Z,34.00
2018-07-27T18:11:13.628Z,34.00
2018-07-27T18:13:41.667Z,33.90
2018-07-27T18:16:09.948Z,33.80
2018-07-27T18:18:37.988Z,33.70
2018-07-27T18:21:06.103Z,33.60
2018-07-27T18:23:34.223Z,33.40
2018-07-27T18:26:02.237Z,33.30
2018-07-27T18:28:30.300Z,33.20
2018-07-27T18:30:58.377Z,33.00
2018-07-27T18:33:26.440Z,32.80
2018-07-27T18:35:54.515Z,32.70
2018-07-27T18:38:22.721Z,32.50
2018-07-27T18:40:50.785Z,32.30
2018-07-27T18:43:18.844Z,32.20
2018-07-27T18:45:46.908Z,32.00
2018-07-27T18:48:14.969Z,31.80
2018-07-27T18:50:43.032Z,31.50
2018-07-27T18:53:11.163Z,31.40
2018-07-27T18:55:39.251Z,31.30
2018-07-27T18:58:08.265Z,31.00
2018-07-27T19:00:36.623Z,30.90
2018-07-27T19:03:04.723Z,30.80
2018-07-27T19:05:32.799Z,30.60
2018-07-27T19:08:00.866Z,30.50
2018-07-27T19:10:28.938Z,30.40
2018-07-27T19:12:57.008Z,30.20
2018-07-27T19:15:25.091Z,30.00
2018-07-27T19:17:53.152Z,29.90
2018-07-27T19:20:21.224Z,29.80
2018-07-27T19:25:17.140Z,29.60
2018-07-27T19:27:45.187Z,29.50
2018-07-27T19:30:13.253Z,29.40
2018-07-27T19:32:41.320Z,29.20
2018-07-27T19:35:09.386Z,29.10
2018-07-27T19:37:37.458Z,29.00
2018-07-27T19:40:05.541Z,28.80
2018-07-27T19:42:33.568Z,28.80
2018-07-27T19:45:01.799Z,28.70
2018-07-27T19:47:29.894Z,28.60
2018-07-27T19:49:57.956Z,28.50
2018-07-27T19:52:26.004Z,28.40
2018-07-27T19:54:54.980Z,28.40
2018-07-27T19:57:23.068Z,28.40
2018-07-27T19:59:51.192Z,28.40
2018-07-27T20:02:19.284Z,28.30
2018-07-27T20:04:47.292Z,28.30
2018-07-27T20:07:15.491Z,28.20
2018-07-27T20:09:43.513Z,28.20
2018-07-27T20:12:11.559Z,28.20
2018-07-27T20:14:39.628Z,28.10
2018-07-27T20:17:07.680Z,28.10
2018-07-27T20:19:35.738Z,28.00
2018-07-27T20:22:03.824Z,28.00
2018-07-27T20:24:31.885Z,28.00
2018-07-27T20:26:59.957Z,27.90
2018-07-27T20:29:28.025Z,27.90
2018-07-27T20:34:24.029Z,27.80
2018-07-27T20:36:52.104Z,27.80
2018-07-27T20:39:20.170Z,27.80
2018-07-27T20:41:48.283Z,27.80
2018-07-27T20:44:16.350Z,27.70
2018-07-27T20:46:44.437Z,27.70
2018-07-27T20:49:12.524Z,27.70
2018-07-27T20:51:40.714Z,27.70
2018-07-27T20:54:09.414Z,27.70
2018-07-27T20:56:37.609Z,27.70
2018-07-27T20:59:06.208Z,27.60
2018-07-27T21:01:34.360Z,27.60
2018-07-27T21:04:02.490Z,27.60
2018-07-27T21:06:30.523Z,27.60
2018-07-27T21:08:58.594Z,27.50
2018-07-27T21:11:26.668Z,27.60
2018-07-27T21:13:54.740Z,27.50
2018-07-27T21:16:22.868Z,27.40
2018-07-27T21:18:50.928Z,27.40
2018-07-27T21:21:19.040Z,27.40
2018-07-27T21:23:47.125Z,27.30
2018-07-27T21:26:15.196Z,27.20
2018-07-27T21:28:43.277Z,27.20
2018-07-27T21:31:11.409Z,27.10
2018-07-27T21:33:39.408Z,27.00
2018-07-27T21:36:07.478Z,27.00
2018-07-27T21:38:35.548Z,26.90
2018-07-27T21:41:03.651Z,26.90
2018-07-27T21:43:31.720Z,26.90
2018-07-27T21:45:59.843Z,26.80
2018-07-27T21:48:27.896Z,26.80
2018-07-27T21:50:55.977Z,26.60
2018-07-27T21:53:24.065Z,26.60
2018-07-27T21:55:52.132Z,26.50
2018-07-27T21:58:20.189Z,26.40
2018-07-27T22:00:48.306Z,26.20
2018-07-27T22:03:16.365Z,26.10
2018-07-27T22:05:51.080Z,26.10
2018-07-27T22:08:19.141Z,26.00
2018-07-27T22:10:47.303Z,25.90
2018-07-27T22:13:15.389Z,25.90
2018-07-27T22:15:43.432Z,25.80
2018-07-27T22:18:11.500Z,25.80
2018-07-27T22:20:39.569Z,25.70
2018-07-27T22:23:07.644Z,25.70
2018-07-27T22:25:35.704Z,25.60
2018-07-27T22:28:03.774Z,25.60
2018-07-27T22:31:35.025Z,25.50
2018-07-27T22:34:03.100Z,25.50
2018-07-27T22:36:31.172Z,25.40
2018-07-27T22:38:59.243Z,25.30
2018-07-27T22:41:27.329Z,25.20
2018-07-27T22:43:55.381Z,25.20
2018-07-27T22:46:23.443Z,25.10
2018-07-27T22:48:51.508Z,25.10
2018-07-27T22:51:19.572Z,25.00
2018-07-27T22:53:47.644Z,25.00
2018-07-27T22:56:15.716Z,24.90
2018-07-27T22:58:43.776Z,24.90
2018-07-27T23:01:11.848Z,24.90
2018-07-27T23:03:39.922Z,24.80
2018-07-27T23:06:07.984Z,24.80
2018-07-27T23:08:36.063Z,24.80
2018-07-27T23:11:04.113Z,24.80
2018-07-27T23:13:32.184Z,24.80
2018-07-27T23:16:00.249Z,24.70
2018-07-27T23:18:28.307Z,24.70
2018-07-27T23:20:56.385Z,24.70
2018-07-27T23:23:24.448Z,24.70
2018-07-27T23:25:52.504Z,24.70
2018-07-27T23:28:20.560Z,24.70
2018-07-27T23:30:48.624Z,24.70
2018-07-27T23:33:16.696Z,24.70
2018-07-27T23:35:44.720Z,24.70
2018-07-27T23:38:12.764Z,24.70
2018-07-27T23:40:40.817Z,24.70
2018-07-27T23:43:08.868Z,24.60
2018-07-27T23:45:36.912Z,24.60
2018-07-27T23:48:04.973Z,24.60
2018-07-27T23:50:32.999Z,24.60
2018-07-27T23:53:01.050Z,24.50
2018-07-27T23:55:29.100Z,24.50
2018-07-27T23:57:57.342Z,24.40
